createdAt,value
2023-02-24T00:00:39.851Z,22.29
2023-02-24T00:03:13.637Z,22.35
2023-02-24T00:05:52.556Z,22.35
2023-02-24T00:08:23.671Z,22.28
2023-02-24T00:11:00.676Z,22.43
2023-02-24T00:13:32.248Z,22.51
2023-02-24T00:16:07.784Z,22.46
2023-02-24T00:18:41.977Z,22.53
2023-02-24T00:21:17.046Z,22.55
2023-02-24T00:23:51.393Z,22.55
2023-02-24T00:26:23.550Z,22.56
2023-02-24T00:28:55.353Z,22.59
2023-02-24T00:31:27.918Z,22.62
2023-02-24T00:34:00.230Z,22.64
2023-02-24T00:36:36.939Z,22.55
2023-02-24T00:39:13.385Z,22.56
2023-02-24T00:41:46.117Z,22.56
2023-02-24T00:44:18.045Z,22.64
2023-02-24T00:46:49.696Z,22.66
2023-02-24T00:49:22.202Z,22.60
2023-02-24T00:51:59.393Z,22.55
2023-02-24T00:54:37.817Z,22.56
2023-02-24T00:57:16.464Z,22.51
2023-02-24T00:59:59.233Z,22.59
2023-02-24T01:02:34.275Z,22.63
2023-02-24T01:05:18.850Z,22.63
2023-02-24T01:07:59.685Z,22.64
2023-02-24T01:10:31.648Z,22.67
2023-02-24T01:13:06.037Z,22.69
2023-02-24T01:15:52.385Z,22.74
2023-02-24T01:18:26.867Z,22.77
2023-02-24T01:21:01.591Z,22.82
2023-02-24T01:23:34.462Z,22.76
2023-02-24T01:26:20.505Z,22.76
2023-02-24T01:28:56.506Z,22.82
2023-02-24T01:31:30.850Z,22.84
2023-02-24T01:34:08.587Z,22.86
2023-02-24T01:36:41.757Z,22.84
2023-02-24T01:39:14.093Z,22.89
2023-02-24T01:41:47.624Z,22.93
2023-02-24T01:44:20.340Z,22.99
2023-02-24T01:46:55.394Z,22.96
2023-02-24T01:49:49.039Z,23.02
2023-02-24T01:52:31.875Z,23.04
2023-02-24T01:55:16.451Z,23.07
2023-02-24T01:57:48.262Z,23.13
2023-02-24T02:00:35.120Z,23.11
2023-02-24T02:03:33.334Z,23.13
2023-02-24T02:06:09.185Z,23.04
2023-02-24T02:08:43.934Z,23.02
2023-02-24T02:11:25.133Z,23.04
2023-02-24T02:13:59.762Z,23.10
2023-02-24T02:16:33.335Z,23.11
2023-02-24T02:19:20.778Z,23.13
2023-02-24T02:22:11.435Z,23.15
2023-02-24T02:25:07.277Z,23.15
2023-02-24T02:28:05.012Z,23.14
2023-02-24T02:30:54.113Z,23.17
2023-02-24T02:33:52.170Z,23.15
2023-02-24T02:36:56.263Z,23.14
2023-02-24T02:39:54.161Z,23.13
2023-02-24T02:42:43.146Z,23.17
2023-02-24T02:45:24.548Z,23.18
2023-02-24T02:48:25.355Z,23.21
2023-02-24T02:51:07.637Z,23.20
2023-02-24T02:53:54.085Z,23.20
2023-02-24T02:56:38.725Z,23.20
2023-02-24T02:59:14.857Z,23.17
2023-02-24T03:01:47.714Z,23.21
2023-02-24T03:04:24.214Z,23.20
2023-02-24T03:07:02.926Z,23.23
2023-02-24T03:09:46.385Z,23.25
2023-02-24T03:12:23.960Z,23.13
2023-02-24T03:15:03.410Z,23.04
2023-02-24T03:17:42.299Z,23.02
2023-02-24T03:20:24.006Z,22.93
2023-02-24T03:23:19.649Z,22.89
2023-02-24T03:25:56.202Z,22.86
2023-02-24T03:28:52.274Z,22.84
2023-02-24T03:31:52.387Z,22.80
2023-02-24T03:34:41.874Z,22.73
2023-02-24T03:37:12.177Z,22.73
2023-02-24T03:39:42.673Z,22.69
2023-02-24T03:42:22.632Z,22.67
2023-02-24T03:44:54.607Z,22.69
2023-02-24T03:47:26.519Z,22.70
2023-02-24T03:49:57.675Z,22.67
2023-02-24T03:52:42.083Z,22.64
2023-02-24T03:55:49.587Z,22.70
2023-02-24T03:58:28.510Z,22.63
2023-02-24T04:01:27.146Z,22.62
2023-02-24T04:04:25.556Z,22.66
2023-02-24T04:07:15.994Z,22.63
2023-02-24T04:10:16.584Z,22.59
2023-02-24T04:13:11.754Z,22.60
2023-02-24T04:15:45.129Z,22.62
2023-02-24T04:18:20.301Z,22.60
2023-02-24T04:20:54.420Z,22.60
2023-02-24T04:23:40.069Z,22.62
2023-02-24T04:26:14.148Z,22.55
2023-02-24T04:28:46.479Z,22.55
2023-02-24T04:31:19.943Z,22.51
2023-02-24T04:33:54.805Z,22.55
2023-02-24T04:36:35.890Z,22.52
2023-02-24T04:39:06.486Z,22.48
2023-02-24T04:41:37.850Z,22.42
2023-02-24T04:44:08.274Z,22.38
2023-02-24T04:46:38.330Z,22.35
2023-02-24T04:49:08.758Z,22.32
2023-02-24T04:51:44.550Z,22.29
2023-02-24T04:54:20.766Z,22.29
2023-02-24T04:56:53.046Z,22.25
2023-02-24T04:59:26.923Z,22.12
2023-02-24T05:01:58.014Z,22.08
2023-02-24T05:04:29.186Z,22.04
2023-02-24T05:07:00.552Z,22.01
2023-02-24T05:09:31.584Z,21.98
2023-02-24T05:12:01.801Z,21.97
2023-02-24T05:14:32.693Z,21.97
2023-02-24T05:17:05.413Z,22.00
2023-02-24T05:19:54.298Z,22.00
2023-02-24T05:22:24.471Z,21.95
2023-02-24T05:24:54.488Z,21.92
2023-02-24T05:27:25.143Z,21.91
2023-02-24T05:29:57.866Z,21.88
2023-02-24T05:32:28.022Z,21.92
2023-02-24T05:34:58.823Z,21.97
2023-02-24T05:37:29.440Z,21.87
2023-02-24T05:40:01.680Z,21.82
2023-02-24T05:42:37.287Z,21.82
2023-02-24T05:45:07.230Z,21.94
2023-02-24T05:47:39.116Z,21.81
2023-02-24T05:50:11.298Z,21.73
2023-02-24T05:52:41.912Z,21.73
2023-02-24T05:55:16.038Z,21.73
2023-02-24T05:57:46.255Z,21.73
2023-02-24T06:00:18.342Z,21.74
2023-02-24T06:02:51.504Z,21.67
2023-02-24T06:05:27.670Z,21.67
2023-02-24T06:08:13.067Z,21.58
2023-02-24T06:10:49.127Z,21.62
2023-02-24T06:13:20.304Z,21.64
2023-02-24T06:15:57.206Z,21.60
2023-02-24T06:18:28.307Z,21.55
2023-02-24T06:21:00.418Z,21.57
2023-02-24T06:23:30.759Z,21.50
2023-02-24T06:26:05.365Z,21.50
2023-02-24T06:28:35.783Z,21.50
2023-02-24T06:31:08.231Z,21.47
2023-02-24T06:33:40.032Z,21.44
2023-02-24T06:36:11.305Z,21.46
2023-02-24T06:38:43.650Z,21.50
2023-02-24T06:41:15.751Z,21.50
2023-02-24T06:43:49.244Z,21.53
2023-02-24T06:46:19.424Z,21.54
2023-02-24T06:48:50.191Z,21.51
2023-02-24T06:51:21.371Z,21.53
2023-02-24T06:53:54.535Z,21.53
2023-02-24T06:56:26.636Z,21.50
2023-02-24T06:58:58.268Z,21.46
2023-02-24T07:01:30.615Z,21.40
2023-02-24T07:04:05.281Z,21.33
2023-02-24T07:06:39.607Z,21.30
2023-02-24T07:09:15.145Z,21.30
2023-02-24T07:11:58.063Z,21.27
2023-02-24T07:14:33.548Z,21.29
2023-02-24T07:17:05.108Z,21.26
2023-02-24T07:19:45.527Z,21.31
2023-02-24T07:22:18.389Z,21.27
2023-02-24T07:24:48.639Z,21.26
2023-02-24T07:27:25.371Z,21.27
2023-02-24T07:29:55.570Z,21.29
2023-02-24T07:32:27.388Z,21.20
2023-02-24T07:35:01.006Z,21.23
2023-02-24T07:37:32.914Z,21.30
2023-02-24T07:40:04.639Z,21.34
2023-02-24T07:42:36.770Z,21.37
2023-02-24T07:45:10.292Z,21.30
2023-02-24T07:47:42.504Z,21.30
2023-02-24T07:50:19.651Z,21.37
2023-02-24T07:52:50.072Z,21.34
2023-02-24T07:55:21.704Z,21.31
2023-02-24T07:57:53.871Z,21.33
2023-02-24T08:00:30.283Z,21.38
2023-02-24T08:03:02.014Z,21.48
2023-02-24T08:05:33.126Z,21.51
2023-02-24T08:08:04.554Z,21.55
2023-02-24T08:10:38.406Z,21.53
2023-02-24T08:13:09.111Z,21.57
2023-02-24T08:15:40.060Z,21.50
2023-02-24T08:18:12.046Z,21.54
2023-02-24T08:20:53.944Z,21.55
2023-02-24T08:23:24.895Z,21.55
2023-02-24T08:25:55.203Z,21.60
2023-02-24T08:28:29.402Z,21.62
2023-02-24T08:31:00.540Z,21.68
2023-02-24T08:33:31.468Z,21.71
2023-02-24T08:36:05.411Z,21.70
2023-02-24T08:38:47.080Z,21.75
2023-02-24T08:41:18.922Z,21.87
2023-02-24T08:43:50.313Z,21.90
2023-02-24T08:46:35.190Z,21.87
2023-02-24T08:49:12.113Z,21.90
2023-02-24T08:51:46.880Z,21.98
2023-02-24T08:54:28.474Z,22.02
2023-02-24T08:56:59.255Z,22.06
2023-02-24T08:59:51.939Z,22.05
2023-02-24T09:02:28.510Z,22.05
2023-02-24T09:05:08.908Z,22.09
2023-02-24T09:07:44.441Z,22.12
2023-02-24T09:10:23.005Z,22.25
2023-02-24T09:12:55.689Z,22.13
2023-02-24T09:15:27.685Z,22.18
2023-02-24T09:18:11.573Z,22.22
2023-02-24T09:20:57.806Z,22.21
2023-02-24T09:23:49.451Z,22.26
2023-02-24T09:26:23.178Z,22.28
2023-02-24T09:29:00.595Z,22.31
2023-02-24T09:31:42.038Z,22.28
2023-02-24T09:34:19.895Z,22.35
2023-02-24T09:37:02.999Z,22.38
2023-02-24T09:39:54.857Z,22.41
2023-02-24T09:42:36.183Z,22.48
2023-02-24T09:45:14.631Z,22.52
2023-02-24T09:47:57.737Z,22.52
2023-02-24T09:51:03.202Z,22.45
2023-02-24T09:53:53.655Z,22.41
2023-02-24T09:56:43.750Z,22.42
2023-02-24T09:59:43.700Z,22.38
2023-02-24T10:02:15.085Z,22.42
2023-02-24T10:05:14.355Z,22.45
2023-02-24T10:07:45.618Z,22.52
2023-02-24T10:10:37.216Z,22.49
2023-02-24T10:13:38.128Z,22.51
2023-02-24T10:16:14.397Z,22.53
2023-02-24T10:19:16.448Z,22.59
2023-02-24T10:22:28.813Z,22.63
2023-02-24T10:25:29.173Z,22.70
2023-02-24T10:28:25.975Z,22.69
2023-02-24T10:34:41.564Z,22.87
2023-02-24T10:37:28.010Z,22.89
2023-02-24T10:40:01.664Z,22.94
2023-02-24T10:42:35.567Z,23.04
2023-02-24T10:45:26.557Z,23.17
2023-02-24T10:47:59.257Z,23.15
2023-02-24T10:50:55.490Z,23.25
2023-02-24T10:53:42.302Z,23.35
2023-02-24T10:56:29.005Z,23.44
2023-02-24T10:59:37.489Z,23.50
2023-02-24T11:02:31.218Z,23.62
2023-02-24T11:05:26.418Z,23.68
2023-02-24T11:08:46.322Z,23.84
2023-02-24T11:11:30.058Z,23.84
2023-02-24T11:14:23.073Z,23.90
2023-02-24T11:17:14.546Z,24.01
2023-02-24T11:19:57.912Z,24.15
2023-02-24T11:22:43.033Z,24.53
2023-02-24T11:25:47.410Z,24.70
2023-02-24T11:28:38.341Z,25.00
2023-02-24T11:31:27.512Z,25.38
2023-02-24T11:34:07.492Z,25.75
2023-02-24T11:37:05.077Z,26.32
2023-02-24T11:40:03.061Z,26.60
2023-02-24T11:42:48.072Z,26.91
2023-02-24T11:45:42.700Z,27.18
2023-02-24T11:48:36.966Z,27.22
2023-02-24T11:51:15.628Z,26.99
2023-02-24T11:54:24.724Z,27.38
2023-02-24T11:57:01.894Z,27.22
2023-02-24T11:59:35.569Z,27.27
2023-02-24T12:02:27.264Z,27.38
2023-02-24T12:05:21.181Z,27.14
2023-02-24T12:08:07.296Z,27.12
2023-02-24T12:10:46.439Z,27.14
2023-02-24T12:13:41.918Z,27.38
2023-02-24T12:16:29.330Z,27.21
2023-02-24T12:19:39.768Z,27.34
2023-02-24T12:22:23.402Z,27.11
2023-02-24T12:24:56.114Z,27.28
2023-02-24T12:27:57.841Z,27.28
2023-02-24T12:30:50.877Z,27.29
2023-02-24T12:33:27.043Z,27.32
2023-02-24T12:36:10.909Z,27.38
2023-02-24T12:39:08.480Z,27.31
2023-02-24T12:41:46.132Z,27.32
2023-02-24T12:44:37.664Z,27.39
2023-02-24T12:47:20.266Z,27.41
2023-02-24T12:50:05.223Z,27.55
2023-02-24T12:52:53.436Z,27.67
2023-02-24T12:56:01.404Z,27.74
2023-02-24T12:58:36.317Z,27.58
2023-02-24T13:01:30.785Z,27.48
2023-02-24T13:04:41.804Z,27.42
2023-02-24T13:07:44.258Z,27.38
2023-02-24T13:10:37.852Z,27.34
2023-02-24T13:13:25.028Z,27.24
2023-02-24T13:15:58.831Z,27.15
2023-02-24T13:18:39.228Z,27.07
2023-02-24T13:21:25.774Z,27.14
2023-02-24T13:24:04.942Z,27.09
2023-02-24T13:26:36.994Z,27.21
2023-02-24T13:29:16.121Z,27.38
2023-02-24T13:31:52.600Z,27.52
2023-02-24T13:34:48.400Z,27.65
2023-02-24T13:37:29.502Z,27.86
2023-02-24T13:39:59.979Z,27.92
2023-02-24T13:42:34.872Z,28.17
2023-02-24T13:45:18.977Z,28.31
2023-02-24T13:48:01.613Z,28.64
2023-02-24T13:50:58.653Z,28.99
2023-02-24T13:53:30.168Z,28.95
2023-02-24T13:56:31.343Z,29.12
2023-02-24T13:59:39.827Z,29.20
2023-02-24T14:02:15.926Z,28.95
2023-02-24T14:04:57.776Z,28.69
2023-02-24T14:07:36.485Z,28.87
2023-02-24T14:10:21.807Z,28.55
2023-02-24T14:12:57.852Z,28.75
2023-02-24T14:15:30.044Z,28.68
2023-02-24T14:18:07.126Z,28.78
2023-02-24T14:20:41.020Z,28.76
2023-02-24T14:23:30.150Z,28.67
2023-02-24T14:26:05.789Z,28.34
2023-02-24T14:28:40.903Z,28.40
2023-02-24T14:31:14.621Z,28.37
2023-02-24T14:33:48.119Z,28.06
2023-02-24T14:36:27.729Z,27.74
2023-02-24T14:39:15.864Z,27.78
2023-02-24T14:41:48.499Z,27.52
2023-02-24T14:44:30.814Z,27.58
2023-02-24T14:47:05.697Z,27.41
2023-02-24T14:49:37.570Z,27.28
2023-02-24T14:52:14.200Z,27.19
2023-02-24T14:54:53.411Z,27.18
2023-02-24T14:57:34.986Z,27.22
2023-02-24T15:00:25.722Z,27.34
2023-02-24T15:03:18.371Z,27.52
2023-02-24T15:05:53.355Z,27.82
2023-02-24T15:08:30.131Z,28.07
2023-02-24T15:11:01.399Z,28.10
2023-02-24T15:13:40.500Z,28.04
2023-02-24T15:17:02.805Z,28.03
2023-02-24T15:19:49.414Z,27.78
2023-02-24T15:22:40.744Z,27.55
2023-02-24T15:25:52.497Z,27.58
2023-02-24T15:28:27.773Z,27.28
2023-02-24T15:31:19.402Z,27.07
2023-02-24T15:34:19.173Z,27.04
2023-02-24T15:36:50.299Z,26.85
2023-02-24T15:39:24.902Z,26.83
2023-02-24T15:42:10.518Z,26.80
2023-02-24T15:44:41.580Z,26.58
2023-02-24T15:47:27.426Z,26.46
2023-02-24T15:49:58.800Z,26.27
2023-02-24T15:52:31.384Z,26.29
2023-02-24T15:55:04.123Z,26.29
2023-02-24T15:57:35.720Z,26.29
2023-02-24T16:00:26.183Z,26.29
2023-02-24T16:02:56.440Z,26.17
2023-02-24T16:05:28.315Z,26.02
2023-02-24T16:07:58.714Z,25.95
2023-02-24T16:10:32.180Z,25.82
2023-02-24T16:13:04.803Z,25.76
2023-02-24T16:15:40.857Z,25.69
2023-02-24T16:18:22.076Z,25.72
2023-02-24T16:20:58.292Z,25.99
2023-02-24T16:23:28.816Z,25.93
2023-02-24T16:26:01.054Z,26.16
2023-02-24T16:28:34.674Z,26.20
2023-02-24T16:31:05.528Z,26.36
2023-02-24T16:33:53.256Z,26.40
2023-02-24T16:36:29.898Z,26.51
2023-02-24T16:39:01.235Z,26.65
2023-02-24T16:41:34.038Z,26.65
2023-02-24T16:44:05.647Z,26.65
2023-02-24T16:46:42.066Z,26.57
2023-02-24T16:49:20.858Z,26.51
2023-02-24T16:51:52.172Z,26.30
2023-02-24T16:54:30.331Z,26.16
2023-02-24T16:57:01.793Z,26.02
2023-02-24T16:59:33.507Z,25.95
2023-02-24T17:02:05.523Z,25.85
2023-02-24T17:04:37.769Z,25.83
2023-02-24T17:10:01.674Z,25.72
2023-02-24T17:12:32.581Z,25.65
2023-02-24T17:15:03.979Z,25.65
2023-02-24T17:17:37.870Z,25.55
2023-02-24T17:20:08.918Z,25.46
2023-02-24T17:22:40.218Z,25.57
2023-02-24T17:25:32.079Z,25.49
2023-02-24T17:28:05.420Z,25.65
2023-02-24T17:30:38.686Z,25.68
2023-02-24T17:33:09.222Z,25.65
2023-02-24T17:35:40.498Z,25.68
2023-02-24T17:38:20.008Z,25.66
2023-02-24T17:40:50.240Z,25.65
2023-02-24T17:43:21.052Z,25.61
2023-02-24T17:45:54.096Z,25.61
2023-02-24T17:48:24.538Z,25.66
2023-02-24T17:50:55.684Z,25.57
2023-02-24T17:53:27.276Z,25.49
2023-02-24T17:56:06.535Z,25.39
2023-02-24T17:58:38.593Z,25.30
2023-02-24T18:01:10.163Z,25.28
2023-02-24T18:03:40.685Z,25.25
2023-02-24T18:06:14.105Z,25.32
2023-02-24T18:08:46.354Z,25.28
2023-02-24T18:11:18.815Z,25.27
2023-02-24T18:13:52.213Z,25.17
2023-02-24T18:16:22.869Z,25.17
2023-02-24T18:18:53.940Z,25.17
2023-02-24T18:21:24.447Z,25.27
2023-02-24T18:23:54.664Z,25.30
2023-02-24T18:26:26.840Z,25.24
2023-02-24T18:28:57.890Z,25.08
2023-02-24T18:31:29.663Z,25.07
2023-02-24T18:34:00.372Z,25.04
2023-02-24T18:36:30.708Z,25.03
2023-02-24T18:39:01.134Z,25.01
2023-02-24T18:41:31.349Z,25.17
2023-02-24T18:44:01.678Z,25.34
2023-02-24T18:46:31.786Z,25.61
2023-02-24T18:49:02.192Z,25.78
2023-02-24T18:51:32.245Z,25.97
2023-02-24T18:54:04.363Z,26.09
2023-02-24T18:56:36.908Z,26.16
2023-02-24T18:59:07.149Z,26.12
2023-02-24T19:01:40.170Z,25.99
2023-02-24T19:04:10.973Z,25.82
2023-02-24T19:06:45.045Z,25.81
2023-02-24T19:09:15.043Z,25.75
2023-02-24T19:11:45.511Z,25.62
2023-02-24T19:14:17.318Z,25.51
2023-02-24T19:16:48.241Z,25.42
2023-02-24T19:19:19.628Z,25.41
2023-02-24T19:21:51.602Z,25.38
2023-02-24T19:24:22.348Z,25.25
2023-02-24T19:26:56.176Z,25.10
2023-02-24T19:29:28.101Z,25.03
2023-02-24T19:32:00.358Z,24.97
2023-02-24T19:34:31.662Z,24.98
2023-02-24T19:37:02.457Z,25.06
2023-02-24T19:39:33.581Z,25.14
2023-02-24T19:42:04.755Z,25.24
2023-02-24T19:44:36.268Z,25.55
2023-02-24T19:47:07.958Z,26.14
2023-02-24T19:49:39.761Z,26.56
2023-02-24T19:52:11.911Z,26.26
2023-02-24T19:54:43.410Z,26.02
2023-02-24T19:57:14.397Z,25.88
2023-02-24T19:59:46.112Z,25.78
2023-02-24T20:02:17.069Z,25.68
2023-02-24T20:04:48.467Z,25.58
2023-02-24T20:07:18.742Z,25.66
2023-02-24T20:09:48.936Z,25.88
2023-02-24T20:12:20.056Z,25.89
2023-02-24T20:14:52.956Z,25.97
2023-02-24T20:17:24.331Z,25.97
2023-02-24T20:19:54.599Z,26.03
2023-02-24T20:22:26.000Z,25.97
2023-02-24T20:24:57.069Z,25.96
2023-02-24T20:27:27.247Z,26.05
2023-02-24T20:29:59.828Z,26.14
2023-02-24T20:32:31.694Z,26.05
2023-02-24T20:35:02.246Z,26.02
2023-02-24T20:37:33.229Z,26.05
2023-02-24T20:40:04.041Z,26.07
2023-02-24T20:42:34.278Z,25.99
2023-02-24T20:45:04.678Z,25.69
2023-02-24T20:47:35.858Z,25.68
2023-02-24T20:50:08.472Z,25.58
2023-02-24T20:52:40.515Z,25.51
2023-02-24T20:55:11.732Z,25.46
2023-02-24T20:57:42.801Z,25.37
2023-02-24T21:00:14.058Z,25.41
2023-02-24T21:02:45.050Z,25.38
2023-02-24T21:05:24.843Z,25.27
2023-02-24T21:07:56.450Z,25.31
2023-02-24T21:10:27.367Z,25.31
2023-02-24T21:12:57.419Z,25.27
2023-02-24T21:15:28.624Z,25.17
2023-02-24T21:17:59.627Z,25.12
2023-02-24T21:20:31.218Z,25.21
2023-02-24T21:23:02.641Z,25.31
2023-02-24T21:25:32.968Z,25.37
2023-02-24T21:28:03.723Z,25.39
2023-02-24T21:30:34.053Z,25.34
2023-02-24T21:33:07.338Z,25.35
2023-02-24T21:35:37.810Z,25.18
2023-02-24T21:38:07.969Z,25.20
2023-02-24T21:40:40.542Z,25.17
2023-02-24T21:43:11.627Z,25.10
2023-02-24T21:45:42.580Z,25.06
2023-02-24T21:48:13.999Z,24.97
2023-02-24T21:50:45.100Z,24.90
2023-02-24T21:53:16.020Z,24.88
2023-02-24T21:55:46.964Z,24.84
2023-02-24T21:58:19.493Z,24.83
2023-02-24T22:00:50.439Z,24.84
2023-02-24T22:03:21.034Z,24.77
2023-02-24T22:05:54.156Z,24.80
2023-02-24T22:08:26.527Z,24.73
2023-02-24T22:11:05.598Z,24.70
2023-02-24T22:13:35.829Z,24.69
2023-02-24T22:16:15.224Z,24.66
2023-02-24T22:18:46.789Z,24.69
2023-02-24T22:21:20.401Z,24.70
2023-02-24T22:23:55.144Z,24.69
2023-02-24T22:26:26.576Z,24.69
2023-02-24T22:28:58.670Z,24.66
2023-02-24T22:31:32.396Z,24.69
2023-02-24T22:34:05.693Z,24.69
2023-02-24T22:36:38.857Z,24.74
2023-02-24T22:39:10.574Z,24.71
2023-02-24T22:41:41.266Z,24.74
2023-02-24T22:44:13.235Z,24.74
2023-02-24T22:46:43.318Z,24.76
2023-02-24T22:49:14.349Z,24.74
2023-02-24T22:51:46.202Z,24.73
2023-02-24T22:54:18.119Z,24.71
2023-02-24T22:56:50.033Z,24.66
2023-02-24T22:59:20.209Z,24.70
2023-02-24T23:01:51.580Z,24.61
2023-02-24T23:04:21.803Z,24.64
2023-02-24T23:06:51.899Z,24.63
2023-02-24T23:09:22.501Z,24.67
2023-02-24T23:11:54.702Z,24.69
2023-02-24T23:14:26.139Z,24.61
2023-02-24T23:16:58.198Z,24.60
2023-02-24T23:19:30.059Z,24.59
2023-02-24T23:22:01.002Z,24.53
2023-02-24T23:24:32.451Z,24.53
2023-02-24T23:27:02.899Z,24.55
2023-02-24T23:29:33.969Z,24.44
2023-02-24T23:32:04.922Z,24.49
2023-02-24T23:34:36.200Z,24.49
2023-02-24T23:37:08.594Z,24.47
2023-02-24T23:39:38.791Z,24.50
2023-02-24T23:42:08.830Z,24.50
2023-02-24T23:44:41.030Z,24.50
2023-02-24T23:47:11.226Z,24.50
2023-02-24T23:49:48.547Z,24.55
2023-02-24T23:52:21.388Z,24.47
2023-02-24T23:54:53.417Z,24.41
2023-02-24T23:57:25.583Z,24.46
2023-02-24T23:59:56.119Z,24.39
